Time;durP1;ratioP1;P1;durP2;ratioP2;P2;SDS_P1;SDS_P2;PMS_P1;PMS_P2;Temp;Humidity;BMP_temperature;BMP_pressure;BME280_temperature;BME280_humidity;BME280_pressure;Samples;Min_cycle;Max_cycle;Signal;HPM_P1;HPM_P2
2022/11/14 00:00:27;;;;;;;28.83;16.10;;;7.60;99.90;;;;;;5078950;28;20522;-68
2022/11/14 00:02:53;;;;;;;27.48;15.88;;;7.60;99.90;;;;;;5073351;28;20012;-67
2022/11/14 00:05:19;;;;;;;28.15;16.65;;;7.60;99.90;;;;;;5073952;28;20404;-68
2022/11/14 00:07:46;;;;;;;31.13;16.17;;;7.60;99.90;;;;;;5073301;28;20025;-67
2022/11/14 00:10:12;;;;;;;29.73;15.80;;;7.60;99.90;;;;;;5074044;28;20052;-68
2022/11/14 00:12:38;;;;;;;28.17;15.48;;;7.60;99.90;;;;;;5073652;28;20029;-67
2022/11/14 00:15:04;;;;;;;27.45;16.10;;;7.60;99.90;;;;;;5079517;28;20042;-67
2022/11/14 00:17:30;;;;;;;26.92;15.90;;;7.60;99.90;;;;;;5077827;28;20100;-67
2022/11/14 00:19:55;;;;;;;29.33;16.83;;;7.50;99.90;;;;;;5085832;28;20099;-67
2022/11/14 00:22:21;;;;;;;29.20;16.73;;;7.50;99.90;;;;;;5092591;28;20016;-68
2022/11/14 00:24:47;;;;;;;30.08;17.30;;;7.50;99.90;;;;;;5093716;28;20032;-68
2022/11/14 00:27:13;;;;;;;29.10;16.27;;;7.50;99.90;;;;;;5093553;28;20494;-68
2022/11/14 00:29:39;;;;;;;31.25;17.10;;;7.40;99.90;;;;;;5092220;28;20081;-68
2022/11/14 00:32:05;;;;;;;28.40;16.55;;;7.40;99.90;;;;;;5092621;28;20023;-69
2022/11/14 00:34:30;;;;;;;28.35;16.48;;;7.40;99.90;;;;;;5076533;28;20039;-68
2022/11/14 00:36:56;;;;;;;28.20;16.75;;;7.40;99.90;;;;;;5080144;28;20020;-68
2022/11/14 00:39:22;;;;;;;31.30;17.30;;;7.30;99.90;;;;;;5092026;28;20077;-67
2022/11/14 00:41:47;;;;;;;30.27;16.95;;;7.30;99.90;;;;;;5089506;28;20116;-68
2022/11/14 00:44:13;;;;;;;32.65;18.65;;;7.30;99.90;;;;;;5093183;28;20031;-68
2022/11/14 00:46:39;;;;;;;29.63;16.92;;;7.20;99.90;;;;;;5084732;28;20464;-68
2022/11/14 00:49:04;;;;;;;32.75;18.38;;;7.20;99.90;;;;;;5078792;28;20099;-68
2022/11/14 00:51:30;;;;;;;31.55;17.75;;;7.20;99.90;;;;;;5077245;28;20024;-68
2022/11/14 00:53:55;;;;;;;31.13;17.23;;;7.20;99.90;;;;;;5072616;28;20032;-68
2022/11/14 00:56:21;;;;;;;29.48;16.75;;;7.10;99.90;;;;;;5083837;28;20043;-68
2022/11/14 00:58:46;;;;;;;31.50;18.65;;;7.10;99.90;;;;;;5093397;28;20024;-69
2022/11/14 01:01:12;;;;;;;30.45;17.77;;;7.10;99.90;;;;;;5093362;28;20444;-68
2022/11/14 01:03:38;;;;;;;30.38;17.60;;;7.00;99.90;;;;;;5092987;28;20099;-68
2022/11/14 01:06:06;;;;;;;35.13;20.02;;;7.00;99.90;;;;;;5093011;28;20367;-68
2022/11/14 01:08:32;;;;;;;33.45;19.15;;;7.00;99.90;;;;;;5093011;28;20021;-69
2022/11/14 01:10:59;;;;;;;33.35;18.25;;;7.00;99.90;;;;;;5081113;28;20020;-67
2022/11/14 01:13:25;;;;;;;32.40;17.98;;;6.90;99.90;;;;;;5091824;28;20515;-68
2022/11/14 01:15:53;;;;;;;34.58;18.70;;;6.90;99.90;;;;;;5083172;28;20027;-70
2022/11/14 01:18:20;;;;;;;32.90;18.73;;;6.90;99.90;;;;;;5092764;28;20024;-68
2022/11/14 01:20:47;;;;;;;35.53;19.20;;;6.90;99.90;;;;;;5092565;28;20054;-70
2022/11/14 01:23:15;;;;;;;33.33;18.85;;;6.80;99.90;;;;;;5086567;28;20444;-68
2022/11/14 01:25:41;;;;;;;37.47;19.30;;;6.80;99.90;;;;;;5086275;28;20024;-69
2022/11/14 01:28:13;;;;;;;36.22;20.75;;;6.80;99.90;;;;;;5085918;28;20023;-68
2022/11/14 01:30:39;;;;;;;33.78;20.00;;;6.80;99.90;;;;;;5092667;28;20079;-68
2022/11/14 01:33:05;;;;;;;35.05;20.20;;;6.80;99.90;;;;;;5092389;28;20031;-68
2022/11/14 01:35:33;;;;;;;35.05;20.27;;;6.70;99.90;;;;;;5092286;28;20024;-68
2022/11/14 01:37:58;;;;;;;38.05;21.30;;;6.80;99.90;;;;;;5075783;28;20069;-68
2022/11/14 01:40:25;;;;;;;37.13;20.67;;;6.80;99.90;;;;;;5092589;28;20099;-68
2022/11/14 01:43:15;;;;;;;37.70;21.38;;;6.70;99.90;;;;;;5092633;28;20020;-68
2022/11/14 01:45:55;;;;;;;39.25;21.77;;;6.70;99.90;;;;;;5092277;28;20080;-68
2022/11/14 01:48:58;;;;;;;39.25;20.15;;;6.70;99.90;;;;;;5086343;28;20031;-68
2022/11/14 01:51:28;;;;;;;41.50;22.58;;;6.70;99.90;;;;;;5082088;28;20020;-68
2022/11/14 01:53:57;;;;;;;41.13;21.73;;;6.60;99.90;;;;;;5090636;28;20048;-68
2022/11/14 01:56:35;;;;;;;40.33;21.58;;;6.60;99.90;;;;;;5089790;28;20023;-70
2022/11/14 01:59:07;;;;;;;41.80;21.17;;;6.60;99.90;;;;;;5084192;28;20020;-69
2022/11/14 02:01:37;;;;;;;41.72;22.70;;;6.60;99.90;;;;;;5092490;28;20020;-70
2022/11/14 02:04:04;;;;;;;38.08;21.58;;;6.50;99.90;;;;;;5075825;28;20103;-69
2022/11/14 02:06:30;;;;;;;43.72;23.55;;;6.50;99.90;;;;;;5094856;28;20024;-69
2022/11/14 02:08:59;;;;;;;39.92;21.92;;;6.50;99.90;;;;;;5090873;28;20016;-69
2022/11/14 02:11:29;;;;;;;44.25;23.33;;;6.50;99.90;;;;;;5080253;28;20017;-68
2022/11/14 02:13:55;;;;;;;47.35;24.38;;;6.50;99.90;;;;;;5080816;28;20028;-68
2022/11/14 02:16:20;;;;;;;42.25;23.85;;;6.40;99.90;;;;;;5090124;28;20028;-70
2022/11/14 02:18:46;;;;;;;45.45;24.58;;;6.40;99.90;;;;;;5089903;28;20095;-68
2022/11/14 02:21:11;;;;;;;47.13;23.83;;;6.50;99.90;;;;;;5095758;28;20024;-68
2022/11/14 02:23:37;;;;;;;42.88;24.80;;;6.40;99.90;;;;;;5096023;28;20165;-70
2022/11/14 02:26:02;;;;;;;47.55;24.48;;;6.40;99.90;;;;;;5095729;28;20398;-68
2022/11/14 02:28:28;;;;;;;45.90;24.55;;;6.40;99.90;;;;;;5096176;28;20455;-68
2022/11/14 02:30:54;;;;;;;46.88;25.13;;;6.40;99.90;;;;;;5095271;28;20048;-68
2022/11/14 02:33:19;;;;;;;45.28;25.13;;;6.40;99.90;;;;;;5095745;28;20017;-68
2022/11/14 02:35:45;;;;;;;46.80;24.52;;;6.40;99.90;;;;;;5090086;28;20031;-68
2022/11/14 02:38:11;;;;;;;45.85;23.77;;;6.40;99.90;;;;;;5095243;28;20035;-68
2022/11/14 02:40:36;;;;;;;47.45;23.80;;;6.40;99.90;;;;;;5095671;28;20448;-68
2022/11/14 02:43:02;;;;;;;49.22;25.20;;;6.30;99.90;;;;;;5095956;28;20083;-68
2022/11/14 02:45:27;;;;;;;51.85;26.38;;;6.30;99.90;;;;;;5095194;28;20027;-68
2022/11/14 02:47:53;;;;;;;51.95;25.85;;;6.30;99.90;;;;;;5095305;28;20024;-68
2022/11/14 02:50:18;;;;;;;47.85;25.63;;;6.30;99.90;;;;;;5095368;28;20036;-68
2022/11/14 02:52:44;;;;;;;50.97;25.73;;;6.30;99.90;;;;;;5093314;28;20028;-68
2022/11/14 02:55:09;;;;;;;52.67;26.15;;;6.30;99.90;;;;;;5086619;28;20043;-68
2022/11/14 02:57:35;;;;;;;48.42;25.63;;;6.30;99.90;;;;;;5074207;28;20027;-68
2022/11/14 03:00:01;;;;;;;53.17;25.88;;;6.30;99.90;;;;;;5086372;28;20066;-68
2022/11/14 03:02:26;;;;;;;51.38;27.02;;;6.30;99.90;;;;;;5087746;28;20507;-68
2022/11/14 03:04:52;;;;;;;58.35;25.63;;;6.20;99.90;;;;;;5092533;28;20169;-68
2022/11/14 03:07:18;;;;;;;50.47;26.05;;;6.20;99.90;;;;;;5095066;28;20023;-68
2022/11/14 03:09:43;;;;;;;54.08;26.27;;;6.20;99.90;;;;;;5092739;28;20020;-68
2022/11/14 03:12:09;;;;;;;55.15;26.33;;;6.20;99.90;;;;;;5091467;28;20383;-68
2022/11/14 03:14:34;;;;;;;50.35;26.65;;;6.20;99.90;;;;;;5079724;28;20108;-68
2022/11/14 03:17:00;;;;;;;59.67;25.67;;;6.20;99.90;;;;;;5084390;28;20024;-69
2022/11/14 03:19:25;;;;;;;61.05;28.23;;;6.20;99.90;;;;;;5087238;28;20077;-68
2022/11/14 03:21:51;;;;;;;55.90;27.83;;;6.10;99.90;;;;;;5093736;28;20027;-68
2022/11/14 03:24:17;;;;;;;55.53;26.42;;;6.10;99.90;;;;;;5092956;28;20034;-69
2022/11/14 03:26:42;;;;;;;54.28;26.77;;;6.10;99.90;;;;;;5091571;28;20012;-69
2022/11/14 03:29:08;;;;;;;58.60;27.30;;;6.10;99.90;;;;;;5093106;28;20065;-68
2022/11/14 03:31:34;;;;;;;53.63;26.65;;;6.10;99.90;;;;;;5093459;28;20527;-69
2022/11/14 03:33:59;;;;;;;56.33;25.83;;;6.10;99.90;;;;;;5093028;28;20040;-69
2022/11/14 03:36:25;;;;;;;58.83;28.00;;;6.00;99.90;;;;;;5093345;28;20234;-70
2022/11/14 03:38:50;;;;;;;62.08;28.15;;;6.00;99.90;;;;;;5093447;28;20016;-70
2022/11/14 03:41:16;;;;;;;57.50;27.02;;;6.00;99.90;;;;;;5093113;28;20388;-70
2022/11/14 03:43:41;;;;;;;59.78;28.02;;;6.00;99.90;;;;;;5093050;28;20089;-68
2022/11/14 03:46:07;;;;;;;62.88;27.77;;;5.90;99.90;;;;;;5093074;28;20078;-67
2022/11/14 03:48:33;;;;;;;63.92;27.73;;;6.00;99.90;;;;;;5093122;28;20028;-69
2022/11/14 03:50:58;;;;;;;61.53;26.42;;;5.90;99.90;;;;;;5092818;28;20169;-70
2022/11/14 03:53:24;;;;;;;57.17;28.35;;;5.90;99.90;;;;;;5092954;28;20119;-68
2022/11/14 03:55:50;;;;;;;60.97;27.65;;;5.90;99.90;;;;;;5092852;28;20013;-69
2022/11/14 03:58:16;;;;;;;66.68;28.10;;;5.90;99.90;;;;;;5092907;28;20032;-68
2022/11/14 04:00:42;;;;;;;57.85;27.58;;;5.90;99.90;;;;;;5088310;28;20035;-68
2022/11/14 04:03:07;;;;;;;67.32;28.08;;;5.90;99.90;;;;;;5089654;28;20487;-68
2022/11/14 04:05:33;;;;;;;66.28;28.00;;;5.80;99.90;;;;;;5092824;28;20016;-67
2022/11/14 04:07:58;;;;;;;71.18;29.45;;;5.80;99.90;;;;;;5092191;28;20016;-70
2022/11/14 04:10:24;;;;;;;66.88;28.92;;;5.80;99.90;;;;;;5092637;28;20915;-71
2022/11/14 04:12:52;;;;;;;71.07;28.27;;;5.80;99.90;;;;;;5092263;28;20099;-70
2022/11/14 04:15:18;;;;;;;71.97;28.88;;;5.80;99.90;;;;;;5092604;28;20036;-69
2022/11/14 04:17:45;;;;;;;64.97;27.13;;;5.80;99.90;;;;;;5092340;28;20019;-69
2022/11/14 04:20:12;;;;;;;71.20;28.85;;;5.80;99.90;;;;;;5092682;28;20027;-70
2022/11/14 04:22:38;;;;;;;64.10;28.90;;;5.70;99.90;;;;;;5092587;28;20047;-69
2022/11/14 04:25:04;;;;;;;70.68;29.83;;;5.80;99.90;;;;;;5092271;28;20020;-70
2022/11/14 04:27:30;;;;;;;68.05;28.10;;;5.70;99.90;;;;;;5091809;28;20547;-68
2022/11/14 04:29:55;;;;;;;74.45;29.23;;;5.70;99.90;;;;;;5092060;28;20044;-71
2022/11/14 04:32:21;;;;;;;67.38;29.20;;;5.70;99.90;;;;;;5092068;28;20153;-70
2022/11/14 04:34:46;;;;;;;69.25;29.50;;;5.70;99.90;;;;;;5091939;28;20122;-70
2022/11/14 04:37:12;;;;;;;71.88;29.52;;;5.70;99.90;;;;;;5092126;28;20158;-69
2022/11/14 04:39:37;;;;;;;76.78;29.65;;;5.70;99.90;;;;;;5091898;28;20065;-67
2022/11/14 04:42:03;;;;;;;65.63;27.65;;;5.70;99.90;;;;;;5091809;28;20016;-69
2022/11/14 04:44:28;;;;;;;73.65;30.15;;;5.70;99.90;;;;;;5092219;28;20463;-68
2022/11/14 04:46:54;;;;;;;115.03;33.33;;;5.70;99.90;;;;;;5091889;28;20016;-69
2022/11/14 04:49:20;;;;;;;104.97;32.10;;;5.70;99.90;;;;;;5092066;28;20145;-68
2022/11/14 04:51:45;;;;;;;84.93;30.17;;;5.70;99.90;;;;;;5092098;28;20422;-71
2022/11/14 04:54:11;;;;;;;96.32;29.65;;;5.70;99.90;;;;;;5092028;28;20098;-68
2022/11/14 04:56:37;;;;;;;80.63;29.02;;;5.70;99.90;;;;;;5091723;28;20055;-68
2022/11/14 04:59:02;;;;;;;92.18;30.33;;;5.70;99.90;;;;;;5089131;28;20031;-70
2022/11/14 05:01:28;;;;;;;110.20;30.58;;;5.70;99.90;;;;;;5091878;28;20103;-69
2022/11/14 05:03:54;;;;;;;180.02;39.17;;;5.70;99.90;;;;;;5091908;28;20070;-69
2022/11/14 05:06:20;;;;;;;80.40;30.30;;;5.70;99.90;;;;;;5091868;28;20016;-67
2022/11/14 05:08:45;;;;;;;73.88;28.02;;;5.70;99.90;;;;;;5090639;28;20012;-67
2022/11/14 05:11:15;;;;;;;98.72;30.95;;;5.70;99.90;;;;;;5091250;28;20059;-69
2022/11/14 05:13:41;;;;;;;78.55;30.90;;;5.70;99.90;;;;;;5091805;28;20028;-68
2022/11/14 05:16:07;;;;;;;71.70;27.98;;;5.70;99.90;;;;;;5091864;28;20361;-67
2022/11/14 05:18:32;;;;;;;74.03;29.52;;;5.70;99.90;;;;;;5091514;28;20051;-68
2022/11/14 05:20:59;;;;;;;79.38;29.45;;;5.70;99.90;;;;;;5090734;28;20062;-69
2022/11/14 05:23:25;;;;;;;68.45;28.02;;;5.70;99.90;;;;;;5091906;28;20028;-68
2022/11/14 05:26:01;;;;;;;71.07;29.85;;;5.70;99.90;;;;;;5091665;28;20051;-69
2022/11/14 05:28:26;;;;;;;423.35;61.78;;;5.60;99.90;;;;;;5089627;28;20111;-69
2022/11/14 05:30:52;;;;;;;74.63;28.98;;;5.60;99.90;;;;;;5091699;28;20535;-68
2022/11/14 05:33:17;;;;;;;67.43;26.98;;;5.60;99.90;;;;;;5091591;28;20028;-70
2022/11/14 05:35:43;;;;;;;74.13;27.63;;;5.60;99.90;;;;;;5090839;28;20036;-69
2022/11/14 05:38:08;;;;;;;76.53;27.60;;;5.60;99.90;;;;;;5091379;28;20019;-67
2022/11/14 05:40:34;;;;;;;85.22;29.58;;;5.60;99.90;;;;;;5093950;28;20024;-67
2022/11/14 05:42:59;;;;;;;78.88;28.42;;;5.60;99.90;;;;;;5095447;28;20060;-67
2022/11/14 05:45:25;;;;;;;73.32;28.25;;;5.50;99.90;;;;;;5095535;28;20063;-67
2022/11/14 05:47:52;;;;;;;77.60;28.30;;;5.50;99.90;;;;;;5095168;28;20023;-69
2022/11/14 05:50:18;;;;;;;67.47;26.73;;;5.50;99.90;;;;;;5095292;28;20074;-69
2022/11/14 05:52:44;;;;;;;71.30;27.48;;;5.50;99.90;;;;;;5095289;28;20047;-69
2022/11/14 05:55:09;;;;;;;70.68;28.02;;;5.50;99.90;;;;;;5094986;28;20096;-69
2022/11/14 05:57:35;;;;;;;86.78;29.00;;;5.50;99.90;;;;;;5095459;28;20024;-67
2022/11/14 06:00:01;;;;;;;91.90;28.23;;;5.40;99.90;;;;;;5094898;28;20024;-67
2022/11/14 06:02:27;;;;;;;75.25;29.15;;;5.40;99.90;;;;;;5095324;28;20026;-69
2022/11/14 06:04:52;;;;;;;74.70;26.55;;;5.40;99.90;;;;;;5092230;28;20020;-68
2022/11/14 06:07:18;;;;;;;75.68;29.00;;;5.40;99.90;;;;;;5095697;28;20028;-68
2022/11/14 06:09:44;;;;;;;68.50;26.60;;;5.40;99.90;;;;;;5091209;28;20052;-68
2022/11/14 06:12:09;;;;;;;69.40;26.52;;;5.40;99.90;;;;;;5086537;28;20039;-69
2022/11/14 06:14:35;;;;;;;74.47;27.73;;;5.40;99.90;;;;;;5094527;28;20085;-66
2022/11/14 06:17:00;;;;;;;73.05;26.65;;;5.40;99.90;;;;;;5094850;28;20032;-67
2022/11/14 06:19:26;;;;;;;69.15;26.17;;;5.40;99.90;;;;;;5095831;28;20012;-69
2022/11/14 06:21:51;;;;;;;69.00;26.48;;;5.40;99.90;;;;;;5093309;28;20313;-69
2022/11/14 06:24:17;;;;;;;66.72;27.13;;;5.40;99.90;;;;;;5095692;28;20024;-68
2022/11/14 06:26:42;;;;;;;69.22;26.35;;;5.40;99.90;;;;;;5095809;28;20012;-69
2022/11/14 06:29:09;;;;;;;71.60;24.80;;;5.40;99.90;;;;;;5094687;28;20024;-68
2022/11/14 06:31:34;;;;;;;75.25;27.65;;;5.40;99.90;;;;;;5095816;28;20460;-67
2022/11/14 06:34:00;;;;;;;71.43;26.60;;;5.40;99.90;;;;;;5096178;28;20161;-69
2022/11/14 06:36:26;;;;;;;67.38;25.23;;;5.40;99.90;;;;;;5095810;28;20020;-67
2022/11/14 06:38:51;;;;;;;66.25;25.75;;;5.40;99.90;;;;;;5096201;28;20028;-69
2022/11/14 06:41:19;;;;;;;57.03;24.67;;;5.40;99.90;;;;;;5095724;28;20484;-66
2022/11/14 06:43:46;;;;;;;65.03;27.10;;;5.40;99.90;;;;;;5096345;28;20032;-67
2022/11/14 06:46:16;;;;;;;67.53;26.75;;;5.50;99.90;;;;;;5095646;28;20027;-69
2022/11/14 06:48:42;;;;;;;57.47;23.40;;;5.40;99.90;;;;;;5094880;28;20020;-70
2022/11/14 06:51:09;;;;;;;55.35;22.85;;;5.40;99.90;;;;;;5094784;28;20405;-67
2022/11/14 06:53:36;;;;;;;58.00;22.95;;;5.50;99.90;;;;;;5095722;28;20456;-69
2022/11/14 06:56:11;;;;;;;58.83;23.48;;;5.50;99.90;;;;;;5095626;28;20016;-68
2022/11/14 06:58:39;;;;;;;56.28;23.20;;;5.50;99.90;;;;;;5096023;28;20022;-68
2022/11/14 07:01:18;;;;;;;55.40;22.85;;;5.50;99.90;;;;;;5095855;28;20020;-68
2022/11/14 07:03:44;;;;;;;58.85;23.90;;;5.50;99.90;;;;;;5095408;28;20024;-67
2022/11/14 07:06:14;;;;;;;51.55;21.33;;;5.50;99.90;;;;;;5095520;28;20108;-68
2022/11/14 07:08:40;;;;;;;53.95;23.70;;;5.50;99.90;;;;;;5094992;28;20073;-68
2022/11/14 07:11:08;;;;;;;54.03;23.42;;;5.50;99.90;;;;;;5088599;28;20024;-69
2022/11/14 07:13:35;;;;;;;57.03;23.17;;;5.50;99.90;;;;;;5081583;28;20020;-67
2022/11/14 07:16:01;;;;;;;53.67;22.50;;;5.60;99.90;;;;;;5095260;28;20031;-67
2022/11/14 07:18:30;;;;;;;49.33;22.85;;;5.60;99.90;;;;;;5095005;28;20102;-68
2022/11/14 07:20:57;;;;;;;53.92;22.15;;;5.60;99.90;;;;;;5094184;28;20070;-68
2022/11/14 07:23:23;;;;;;;47.33;20.48;;;5.60;99.90;;;;;;5094790;28;20048;-67
2022/11/14 07:25:49;;;;;;;48.50;20.80;;;5.60;99.90;;;;;;5094260;28;20054;-67
2022/11/14 07:28:15;;;;;;;48.42;20.15;;;5.60;99.90;;;;;;5094413;28;20056;-66
2022/11/14 07:30:40;;;;;;;48.60;21.17;;;5.60;99.90;;;;;;5094251;28;20446;-69
2022/11/14 07:33:06;;;;;;;49.38;21.17;;;5.60;99.90;;;;;;5084163;28;20023;-67
2022/11/14 07:35:31;;;;;;;47.90;21.33;;;5.60;99.90;;;;;;5094202;28;20472;-69
2022/11/14 07:38:02;;;;;;;46.05;20.00;;;5.70;99.90;;;;;;5094373;28;20107;-67
2022/11/14 07:40:28;;;;;;;45.13;20.90;;;5.70;99.90;;;;;;5093244;28;20055;-67
2022/11/14 07:43:00;;;;;;;48.08;20.17;;;5.70;99.90;;;;;;5094034;28;20020;-69
2022/11/14 07:45:27;;;;;;;45.65;20.38;;;5.70;99.90;;;;;;5094643;28;20051;-67
2022/11/14 07:47:55;;;;;;;42.00;19.70;;;5.80;99.90;;;;;;5075785;28;20024;-66
2022/11/14 07:50:21;;;;;;;48.47;20.55;;;5.80;99.90;;;;;;5074179;28;20024;-68
2022/11/14 07:52:54;;;;;;;46.42;20.10;;;5.90;99.90;;;;;;5074621;28;20027;-66
2022/11/14 07:55:20;;;;;;;45.67;19.48;;;5.90;99.90;;;;;;5090555;28;20031;-70
2022/11/14 07:57:46;;;;;;;45.40;20.20;;;5.90;99.90;;;;;;5092982;28;20098;-69
2022/11/14 08:00:13;;;;;;;42.10;19.85;;;6.00;99.90;;;;;;5094723;28;20118;-69
2022/11/14 08:02:39;;;;;;;45.95;19.95;;;6.00;99.90;;;;;;5077735;28;20032;-66
2022/11/14 08:05:04;;;;;;;44.72;19.08;;;6.10;99.90;;;;;;5073651;28;20360;-68
2022/11/14 08:07:30;;;;;;;42.15;18.83;;;6.10;99.90;;;;;;5073120;28;20423;-67
2022/11/14 08:09:56;;;;;;;46.80;18.50;;;6.10;99.90;;;;;;5083803;28;20024;-69
2022/11/14 08:12:21;;;;;;;40.15;18.85;;;6.20;99.90;;;;;;5088221;28;20024;-67
2022/11/14 08:14:47;;;;;;;46.33;18.55;;;6.30;99.90;;;;;;5092910;28;20115;-69
2022/11/14 08:17:12;;;;;;;42.53;19.20;;;6.30;99.90;;;;;;5094333;28;20455;-69
2022/11/14 08:19:38;;;;;;;39.47;17.17;;;6.40;99.90;;;;;;5094082;28;20444;-68
2022/11/14 08:22:03;;;;;;;37.38;17.10;;;6.40;99.90;;;;;;5094077;28;20103;-68
2022/11/14 08:24:29;;;;;;;40.05;17.63;;;6.50;99.90;;;;;;5094068;28;20052;-67
2022/11/14 08:26:54;;;;;;;36.60;17.23;;;6.60;99.90;;;;;;5093552;28;20024;-69
2022/11/14 08:29:20;;;;;;;36.88;16.35;;;6.60;99.90;;;;;;5093367;28;20389;-69
2022/11/14 08:31:46;;;;;;;39.53;18.85;;;6.70;99.90;;;;;;5093545;28;20039;-67
2022/11/14 08:34:11;;;;;;;37.42;16.35;;;6.70;99.90;;;;;;5093563;28;20099;-68
2022/11/14 08:36:37;;;;;;;35.80;17.08;;;6.80;99.90;;;;;;5093781;28;20031;-68
2022/11/14 08:39:02;;;;;;;32.40;15.85;;;6.90;99.90;;;;;;5093231;28;20360;-69
2022/11/14 08:41:28;;;;;;;33.97;15.20;;;6.90;99.90;;;;;;5093204;28;20103;-69
2022/11/14 08:43:54;;;;;;;34.72;15.75;;;7.00;99.90;;;;;;5093753;28;20055;-68
2022/11/14 08:46:19;;;;;;;39.33;17.85;;;7.10;99.90;;;;;;5093840;28;20028;-70
2022/11/14 08:48:45;;;;;;;38.92;17.23;;;7.10;99.90;;;;;;5093705;28;20072;-70
2022/11/14 08:51:11;;;;;;;35.03;15.25;;;7.20;99.90;;;;;;5093484;28;20474;-68
2022/11/14 08:53:36;;;;;;;33.13;15.57;;;7.30;99.90;;;;;;5093491;28;20176;-68
2022/11/14 08:56:02;;;;;;;35.28;16.65;;;7.40;99.90;;;;;;5093013;28;20024;-69
2022/11/14 08:58:31;;;;;;;31.85;15.10;;;7.50;99.90;;;;;;5093069;28;20056;-68
2022/11/14 09:01:05;;;;;;;33.60;16.13;;;7.50;99.90;;;;;;5092843;28;20094;-67
2022/11/14 09:03:31;;;;;;;33.38;15.35;;;7.60;99.90;;;;;;5093410;28;20023;-68
2022/11/14 09:05:56;;;;;;;33.13;15.88;;;7.70;99.90;;;;;;5093982;28;20028;-68
2022/11/14 09:08:22;;;;;;;32.90;14.70;;;7.80;99.90;;;;;;5093639;28;20407;-68
2022/11/14 09:10:48;;;;;;;32.60;15.13;;;8.00;99.90;;;;;;5093522;28;20176;-69
2022/11/14 09:13:14;;;;;;;29.65;14.90;;;8.20;99.90;;;;;;5093292;28;20448;-67
2022/11/14 09:15:41;;;;;;;28.88;13.98;;;8.50;99.90;;;;;;5096286;28;20122;-68
2022/11/14 09:18:08;;;;;;;33.05;14.68;;;8.90;99.90;;;;;;5097153;28;20066;-68
2022/11/14 09:20:34;;;;;;;32.50;13.20;;;9.30;99.90;;;;;;5097743;28;20027;-70
2022/11/14 09:23:00;;;;;;;29.15;13.77;;;9.80;99.90;;;;;;5097140;28;20016;-68
2022/11/14 09:25:28;;;;;;;26.85;12.30;;;10.30;99.90;;;;;;5097028;28;20016;-67
2022/11/14 09:27:54;;;;;;;26.27;11.68;;;10.90;99.90;;;;;;5097166;28;20016;-68
2022/11/14 09:30:21;;;;;;;26.38;11.85;;;11.50;99.90;;;;;;5095365;28;20051;-68
2022/11/14 09:32:47;;;;;;;24.83;11.68;;;12.00;99.90;;;;;;5097285;28;20020;-67
2022/11/14 09:35:12;;;;;;;24.10;11.02;;;12.60;99.90;;;;;;5097174;28;20382;-67
2022/11/14 09:37:38;;;;;;;25.77;12.73;;;13.10;99.90;;;;;;5096807;28;20325;-67
2022/11/14 09:40:05;;;;;;;23.52;11.32;;;13.40;99.90;;;;;;5096953;28;20032;-69
2022/11/14 09:42:53;;;;;;;24.95;11.20;;;13.80;99.90;;;;;;5097063;28;20063;-67
2022/11/14 09:45:19;;;;;;;24.80;12.18;;;14.10;99.90;;;;;;5096739;28;20020;-67
2022/11/14 09:48:03;;;;;;;21.50;10.80;;;14.50;99.90;;;;;;5097022;28;20024;-67
2022/11/14 09:50:32;;;;;;;24.20;12.63;;;15.10;99.90;;;;;;5096801;28;20028;-67
2022/11/14 09:53:05;;;;;;;23.08;11.65;;;15.80;99.90;;;;;;5096964;28;20157;-69
2022/11/14 09:55:33;;;;;;;23.10;11.02;;;16.50;99.10;;;;;;5096682;28;20054;-67
2022/11/14 09:58:01;;;;;;;23.63;11.45;;;17.20;97.50;;;;;;5096548;28;20012;-67
2022/11/14 10:00:47;;;;;;;22.73;11.73;;;17.50;96.40;;;;;;5096692;28;20047;-69
2022/11/14 10:03:44;;;;;;;22.70;11.35;;;17.60;95.70;;;;;;5096563;28;20036;-67
2022/11/14 10:06:31;;;;;;;21.02;11.73;;;17.60;94.50;;;;;;5093795;28;20029;-68
2022/11/14 10:09:05;;;;;;;23.05;11.13;;;17.40;95.10;;;;;;5096740;28;20494;-69
2022/11/14 10:11:39;;;;;;;23.77;12.23;;;17.60;94.70;;;;;;5096040;28;20364;-70
2022/11/14 10:14:26;;;;;;;22.85;11.20;;;17.70;94.70;;;;;;5096528;28;20038;-70
2022/11/14 10:16:58;;;;;;;22.27;11.95;;;18.00;94.60;;;;;;5095154;28;20103;-68
2022/11/14 10:19:43;;;;;;;21.75;11.35;;;18.30;94.00;;;;;;5091345;28;20456;-67
2022/11/14 10:22:57;;;;;;;19.63;11.13;;;18.60;93.90;;;;;;5088646;28;20020;-69
2022/11/14 10:25:29;;;;;;;21.98;10.88;;;18.90;92.80;;;;;;5079189;28;20027;-68
2022/11/14 10:28:39;;;;;;;19.92;10.45;;;18.90;92.80;;;;;;5093483;28;20410;-69
2022/11/14 10:31:30;;;;;;;21.48;11.05;;;19.10;92.70;;;;;;5063200;28;20119;-69
2022/11/14 10:34:28;;;;;;;18.80;10.02;;;19.30;91.90;;;;;;5078513;28;20092;-67
2022/11/14 10:37:19;;;;;;;20.50;10.75;;;19.40;91.80;;;;;;5080070;28;20028;-69
2022/11/14 10:39:50;;;;;;;19.38;10.57;;;19.60;91.90;;;;;;5078641;28;20036;-69
2022/11/14 10:42:30;;;;;;;20.67;11.32;;;19.60;91.40;;;;;;5095058;28;20086;-67
2022/11/14 10:45:36;;;;;;;19.08;10.38;;;19.70;91.50;;;;;;5094577;28;20107;-70
2022/11/14 10:48:13;;;;;;;19.85;10.25;;;19.80;91.00;;;;;;5094852;28;20536;-69
2022/11/14 10:50:56;;;;;;;19.92;11.38;;;19.80;91.20;;;;;;5091236;28;20707;-70
2022/11/14 10:53:48;;;;;;;19.50;11.02;;;20.00;90.90;;;;;;5094547;28;20445;-67
2022/11/14 10:56:13;;;;;;;20.58;11.45;;;20.10;90.20;;;;;;5094606;28;20032;-68
2022/11/14 10:58:40;;;;;;;21.05;11.23;;;20.00;90.50;;;;;;5094562;28;20341;-68
2022/11/14 11:01:31;;;;;;;20.38;10.77;;;19.90;90.90;;;;;;5095390;28;20020;-68
2022/11/14 11:03:57;;;;;;;21.50;11.40;;;20.10;91.00;;;;;;5089457;28;20021;-67
2022/11/14 11:06:27;;;;;;;19.50;10.57;;;20.30;90.60;;;;;;5091769;28;20024;-67
2022/11/14 11:11:40;;;;;;;19.13;10.50;;;20.20;90.10;;;;;;5094617;28;20580;-69
2022/11/14 11:14:16;;;;;;;21.02;10.50;;;19.80;90.00;;;;;;5094995;28;20027;-69
2022/11/14 11:16:44;;;;;;;19.48;10.13;;;19.60;90.50;;;;;;5095361;28;20020;-69
2022/11/14 11:19:29;;;;;;;20.75;10.93;;;19.40;90.10;;;;;;5082830;28;20357;-69
2022/11/14 11:21:55;;;;;;;20.95;10.90;;;19.10;90.80;;;;;;5091614;28;20044;-69
2022/11/14 11:24:32;;;;;;;21.90;11.13;;;19.00;90.80;;;;;;5094581;28;21638;-70
2022/11/14 11:27:26;;;;;;;20.52;10.57;;;18.90;91.40;;;;;;5094821;28;20479;-68
2022/11/14 11:30:19;;;;;;;21.05;11.05;;;18.90;90.90;;;;;;5093771;28;20042;-68
2022/11/14 11:32:44;;;;;;;21.55;11.27;;;18.70;91.40;;;;;;5085773;28;20025;-67
2022/11/14 11:35:13;;;;;;;18.88;10.07;;;18.70;91.60;;;;;;5076162;28;20168;-67
2022/11/14 11:37:44;;;;;;;20.52;11.25;;;18.70;91.70;;;;;;5081743;28;20031;-68
2022/11/14 11:40:17;;;;;;;20.17;11.00;;;18.80;91.80;;;;;;5094406;28;20024;-70
2022/11/14 11:42:55;;;;;;;21.58;11.00;;;18.90;91.60;;;;;;5090148;28;20040;-68
2022/11/14 11:45:22;;;;;;;20.65;10.85;;;19.20;91.30;;;;;;5092510;28;20024;-67
2022/11/14 11:47:56;;;;;;;18.45;9.65;;;19.20;91.00;;;;;;5094409;28;20455;-68
2022/11/14 11:50:23;;;;;;;19.10;10.30;;;19.30;91.20;;;;;;5094590;28;20107;-68
2022/11/14 11:53:25;;;;;;;19.63;10.27;;;19.30;91.20;;;;;;5092420;28;20487;-67
2022/11/14 11:55:58;;;;;;;19.38;10.48;;;19.20;91.10;;;;;;5094387;28;20024;-68
2022/11/14 11:58:46;;;;;;;18.63;9.95;;;19.30;91.90;;;;;;5094412;28;20111;-68
2022/11/14 12:01:13;;;;;;;20.00;9.90;;;19.40;91.20;;;;;;5093535;28;20082;-68
2022/11/14 12:03:43;;;;;;;18.75;9.82;;;19.40;91.50;;;;;;5094318;28;20034;-68
2022/11/14 12:06:17;;;;;;;19.05;10.65;;;19.30;91.10;;;;;;5093086;28;20051;-68
2022/11/14 12:09:03;;;;;;;21.52;10.48;;;19.10;91.30;;;;;;5092514;28;20402;-68
2022/11/14 12:11:33;;;;;;;18.98;9.68;;;19.10;91.70;;;;;;5086367;28;20027;-68
2022/11/14 12:14:35;;;;;;;18.60;10.35;;;19.10;91.50;;;;;;5094091;28;20027;-68
2022/11/14 12:17:10;;;;;;;;;;;19.00;91.80;;;;;;5074130;28;20048;-68
2022/11/14 12:20:15;;;;;;;17.63;9.50;;;18.90;91.30;;;;;;5082573;28;19900;-67
2022/11/14 12:22:52;;;;;;;21.48;11.13;;;18.50;91.80;;;;;;5071863;28;20372;-68
2022/11/14 12:25:55;;;;;;;19.15;10.25;;;18.30;92.30;;;;;;5081360;28;20031;-68
2022/11/14 12:28:58;;;;;;;19.52;9.63;;;18.20;92.80;;;;;;5090522;28;20024;-68
2022/11/14 12:31:30;;;;;;;20.35;10.13;;;18.30;93.00;;;;;;5080287;28;20037;-68
2022/11/14 12:34:00;;;;;;;18.90;10.23;;;18.30;92.80;;;;;;5109029;28;20046;-68
2022/11/14 12:36:33;;;;;;;17.85;9.50;;;18.30;92.50;;;;;;5087516;28;20479;-67
2022/11/14 12:39:00;;;;;;;19.52;10.38;;;18.10;93.10;;;;;;5083477;28;20028;-68
2022/11/14 12:41:35;;;;;;;18.85;9.52;;;18.00;93.20;;;;;;5091814;28;20380;-68
2022/11/14 12:44:37;;;;;;;18.65;9.85;;;17.90;93.30;;;;;;5090139;28;20106;-68
2022/11/14 12:47:06;;;;;;;19.00;9.68;;;17.90;93.90;;;;;;5073756;28;20031;-68
2022/11/14 12:49:46;;;;;;;17.70;9.20;;;18.00;93.60;;;;;;5090266;28;20035;-68